Time;durP1;ratioP1;P1;durP2;ratioP2;P2;SDS_P1;SDS_P2;PMS_P1;PMS_P2;Temp;Humidity;BMP_temperature;BMP_pressure;BME280_temperature;BME280_humidity;BME280_pressure;Samples;Min_cycle;Max_cycle;Signal;HPM_P1;HPM_P2
2023/01/12 00:02:46;;;;;;;15.88;4.80;;;;;;;8.52;73.85;100589.19;5033423;28;19935;-72
2023/01/12 00:06:19;;;;;;;11.95;2.72;;;;;;;8.59;73.35;100585.41;5033290;28;20156;-72
2023/01/12 00:09:31;;;;;;;12.30;2.88;;;;;;;8.63;73.12;100591.31;5033241;28;20561;-72
2023/01/12 00:12:46;;;;;;;14.20;2.13;;;;;;;8.65;72.87;100584.28;5033487;28;20663;-72
2023/01/12 00:19:40;;;;;;;9.65;2.40;;;;;;;8.70;72.95;100565.84;5032715;28;20408;-72
2023/01/12 00:22:52;;;;;;;11.43;2.13;;;;;;;8.70;73.60;100564.06;5032988;28;20411;-72
2023/01/12 00:25:58;;;;;;;13.68;2.38;;;;;;;8.79;73.25;100557.59;5032928;28;20048;-72
2023/01/12 00:29:09;;;;;;;13.30;2.40;;;;;;;8.77;73.66;100556.81;5032755;28;20560;-72
2023/01/12 00:32:32;;;;;;;14.80;2.88;;;;;;;8.78;72.42;100558.53;5021014;28;20095;-72
2023/01/12 00:35:48;;;;;;;14.45;2.97;;;;;;;8.81;72.80;100556.63;5032773;28;20048;-72
2023/01/12 00:39:16;;;;;;;16.38;2.55;;;;;;;8.77;72.93;100562.03;5032633;28;20036;-72
2023/01/12 00:46:12;;;;;;;14.95;2.40;;;;;;;8.79;72.65;100561.06;5032555;28;20050;-72
2023/01/12 00:49:23;;;;;;;14.85;3.10;;;;;;;8.80;72.91;100548.88;5032309;28;20045;-72
2023/01/12 00:52:36;;;;;;;15.57;3.10;;;;;;;8.80;72.77;100551.47;5032470;28;20049;-72
2023/01/12 00:55:57;;;;;;;14.63;3.35;;;;;;;8.83;72.68;100553.94;5032445;28;20049;-72
2023/01/12 00:59:13;;;;;;;13.55;1.85;;;;;;;8.88;72.11;100552.00;5032147;28;20044;-72
2023/01/12 01:02:37;;;;;;;14.80;2.80;;;;;;;8.88;72.52;100552.00;5032395;28;20040;-71
2023/01/12 01:06:07;;;;;;;10.90;2.20;;;;;;;8.88;71.90;100536.34;5039224;28;20449;-71
2023/01/12 01:09:34;;;;;;;10.45;2.28;;;;;;;8.92;72.34;100539.66;5051858;28;20083;-71
2023/01/12 01:12:43;;;;;;;9.90;2.10;;;;;;;8.89;72.14;100545.84;5051976;28;20091;-72
2023/01/12 01:16:04;;;;;;;10.63;3.08;;;;;;;8.91;72.46;100541.41;5052091;28;20271;-71
2023/01/12 01:19:21;;;;;;;10.63;2.55;;;;;;;8.90;72.38;100547.53;5066401;28;20434;-72
2023/01/12 01:22:29;;;;;;;9.73;2.90;;;;;;;8.93;72.64;100538.72;5071955;28;20051;-72
2023/01/12 01:25:43;;;;;;;11.82;2.30;;;;;;;8.95;72.13;100521.25;5071795;28;20120;-72
2023/01/12 01:29:13;;;;;;;11.00;1.88;;;;;;;8.97;72.45;100517.69;5071784;28;20044;-72
2023/01/12 01:32:31;;;;;;;7.20;1.88;;;;;;;9.01;72.12;100519.22;5071760;28;20046;-72
2023/01/12 01:36:00;;;;;;;11.48;3.53;;;;;;;8.96;72.29;100523.78;5071756;28;20133;-72
2023/01/12 01:39:19;;;;;;;7.93;1.77;;;;;;;8.99;72.10;100541.06;5071726;28;20109;-72
2023/01/12 01:42:33;;;;;;;10.32;1.48;;;;;;;8.94;72.31;100538.69;5071402;28;20043;-72
2023/01/12 01:46:14;;;;;;;8.10;1.75;;;;;;;8.99;72.95;100526.25;5071752;28;20094;-71
2023/01/12 01:49:53;;;;;;;5.88;1.33;;;;;;;8.95;72.69;100547.34;5071405;28;20529;-72
2023/01/12 01:53:13;;;;;;;9.85;1.95;;;;;;;9.00;72.67;100538.41;5071385;28;20067;-72
2023/01/12 01:56:32;;;;;;;8.63;2.00;;;;;;;8.98;72.81;100526.34;5071358;28;20468;-72
2023/01/12 01:59:49;;;;;;;10.30;1.92;;;;;;;9.05;72.62;100538.19;5071139;28;20067;-71
2023/01/12 02:03:03;;;;;;;8.88;2.22;;;;;;;8.96;72.78;100530.78;5071507;28;20413;-71
2023/01/12 02:06:13;;;;;;;8.80;1.88;;;;;;;8.98;72.44;100527.19;5071253;28;20567;-72
2023/01/12 02:09:25;;;;;;;10.65;2.03;;;;;;;8.99;72.58;100531.47;5075271;28;20055;-72
2023/01/12 02:16:19;;;;;;;12.85;1.83;;;;;;;9.01;72.75;100510.56;5075315;28;20131;-71
2023/01/12 02:20:02;;;;;;;6.47;1.60;;;;;;;8.97;73.29;100504.63;5075028;28;20109;-71
2023/01/12 02:23:25;;;;;;;10.90;3.03;;;;;;;8.97;73.33;100502.03;5075243;28;20052;-71
2023/01/12 02:26:59;;;;;;;7.22;1.58;;;;;;;8.96;73.03;100500.31;5075048;28;20433;-71
2023/01/12 02:30:12;;;;;;;9.73;2.20;;;;;;;9.07;72.92;100495.47;5074939;28;20513;-71
2023/01/12 02:33:37;;;;;;;8.00;1.88;;;;;;;9.00;73.58;100501.88;5075178;28;20091;-71
2023/01/12 02:37:24;;;;;;;15.75;2.50;;;;;;;8.97;74.00;100491.59;5075102;28;20055;-71
2023/01/12 02:41:11;;;;;;;11.95;2.05;;;;;;;8.94;74.08;100496.97;5074730;28;20109;-71
2023/01/12 02:44:42;;;;;;;12.65;2.35;;;;;;;8.89;74.43;100491.09;5074803;28;20054;-72
2023/01/12 02:48:27;;;;;;;11.10;2.92;;;;;;;8.92;74.54;100482.28;5074561;28;20043;-72
2023/01/12 02:51:59;;;;;;;9.43;1.83;;;;;;;8.93;74.51;100482.19;5074584;28;20449;-71
2023/01/12 02:55:19;;;;;;;10.05;1.90;;;;;;;8.94;74.70;100499.56;5074767;28;20047;-72
2023/01/12 02:58:52;;;;;;;10.13;2.30;;;;;;;8.98;74.62;100480.25;5074500;28;20464;-72
2023/01/12 03:02:20;;;;;;;12.98;3.08;;;;;;;8.98;74.72;100487.22;5055105;28;20071;-71
2023/01/12 03:05:42;;;;;;;12.00;3.13;;;;;;;8.95;74.91;100490.81;5054304;28;20133;-72
2023/01/12 03:09:02;;;;;;;15.82;4.53;;;;;;;9.01;74.91;100472.28;5054118;28;20201;-72
2023/01/12 03:12:21;;;;;;;11.18;2.50;;;;;;;8.91;74.68;100484.06;5054181;28;20106;-71
2023/01/12 03:15:43;;;;;;;15.40;2.75;;;;;;;8.97;74.77;100470.72;5054351;28;20052;-72
2023/01/12 03:19:15;;;;;;;7.90;1.60;;;;;;;9.05;75.09;100463.38;5063676;28;20097;-72
2023/01/12 03:22:32;;;;;;;12.38;2.72;;;;;;;9.00;74.83;100457.56;5073982;28;20059;-72
2023/01/12 03:25:56;;;;;;;10.07;2.38;;;;;;;9.08;74.50;100452.81;5068372;28;20073;-71
2023/01/12 03:29:28;;;;;;;11.00;3.00;;;;;;;9.07;74.52;100447.69;5073933;28;20098;-71
2023/01/12 03:32:51;;;;;;;12.50;2.00;;;;;;;9.00;75.16;100449.72;5073984;28;20063;-71
2023/01/12 03:36:28;;;;;;;12.60;2.20;;;;;;;9.14;74.22;100448.22;5073535;28;20141;-71
2023/01/12 03:39:55;;;;;;;10.35;1.85;;;;;;;9.05;74.71;100449.50;5073623;28;20074;-70
2023/01/12 03:43:24;;;;;;;9.50;2.33;;;;;;;9.16;74.10;100446.41;5073557;28;20169;-71
2023/01/12 03:46:42;;;;;;;9.05;1.88;;;;;;;9.14;74.33;100449.06;5073692;28;20075;-71
2023/01/12 03:50:07;;;;;;;10.40;1.67;;;;;;;9.05;74.29;100445.13;5048031;28;20040;-71
2023/01/12 03:53:14;;;;;;;8.43;2.03;;;;;;;9.10;73.83;100444.09;5055381;28;20051;-71
2023/01/12 03:56:25;;;;;;;10.13;2.20;;;;;;;9.14;73.47;100445.63;5048914;28;20105;-71
2023/01/12 03:59:36;;;;;;;10.13;2.08;;;;;;;9.14;73.69;100443.00;5050925;28;20059;-71
2023/01/12 04:02:48;;;;;;;10.50;1.75;;;;;;;9.16;73.48;100428.16;5052506;28;20047;-72
2023/01/12 04:06:01;;;;;;;8.85;2.28;;;;;;;9.14;73.48;100433.41;5053013;28;20098;-71
2023/01/12 04:09:18;;;;;;;32.72;18.60;;;;;;;9.14;73.94;100432.56;4682857;28;9999917;-72
2023/01/12 04:12:24;;;;;;;13.80;5.88;;;;;;;9.20;73.45;100427.06;5029908;28;20542;-72
2023/01/12 04:15:41;;;;;;;10.27;3.05;;;;;;;9.08;74.00;100426.72;5030263;28;20094;-73
2023/01/12 04:19:01;;;;;;;11.88;2.65;;;;;;;9.18;73.66;100413.25;5030736;28;20060;-75
2023/01/12 04:25:55;;;;;;;6.05;1.45;;;;;;;9.22;73.60;100405.22;5029877;28;20048;-77
2023/01/12 04:29:13;;;;;;;8.27;2.28;;;;;;;9.25;73.47;100404.19;5029692;28;20280;-77
2023/01/12 04:32:32;;;;;;;9.63;2.00;;;;;;;9.29;73.28;100403.97;5029117;28;20052;-76
2023/01/12 04:35:49;;;;;;;7.68;1.77;;;;;;;9.19;74.01;100409.72;5030119;28;20191;-76
2023/01/12 04:39:02;;;;;;;8.70;1.33;;;;;;;9.10;74.82;100399.75;5029943;28;20060;-80
2023/01/12 04:42:59;;;;;;;12.25;1.73;;;;;;;9.08;74.19;100395.41;5029343;28;20048;-78
2023/01/12 04:45:46;;;;;;;11.35;1.48;;;;;;;9.16;74.23;100387.25;5029749;28;20125;-76
2023/01/12 04:48:58;;;;;;;7.15;1.38;;;;;;;9.15;74.56;100398.56;5029197;28;20044;-76
2023/01/12 04:52:09;;;;;;;8.13;1.65;;;;;;;9.19;74.33;100391.44;5028880;28;20051;-76
2023/01/12 04:55:15;;;;;;;10.85;1.45;;;;;;;9.12;74.71;100382.22;5029234;28;20135;-78
2023/01/12 04:58:20;;;;;;;4.28;1.15;;;;;;;9.16;74.38;100368.16;5029544;28;20128;-80
2023/01/12 05:01:29;;;;;;;8.82;1.88;;;;;;;9.10;74.45;100355.41;5017461;28;20056;-79
2023/01/12 05:04:33;;;;;;;5.90;1.20;;;;;;;9.08;74.52;100343.25;5029400;28;20740;-79
2023/01/12 05:10:21;;;;;;;7.00;1.52;;;;;;;9.15;74.75;100340.34;5043623;28;20186;-78
2023/01/12 05:11:17;;;;;;;8.30;1.67;;;;;;;9.18;74.54;100332.38;5068968;28;20106;-78
2023/01/12 05:14:39;;;;;;;8.88;1.30;;;;;;;9.02;74.97;100322.69;5069182;28;20051;-77
2023/01/12 05:17:58;;;;;;;8.13;1.50;;;;;;;8.88;76.55;100322.53;5057900;28;20079;-78
2023/01/12 05:21:28;;;;;;;5.47;1.23;;;;;;;8.96;75.62;100328.19;5089370;28;20051;-72
2023/01/12 05:24:51;;;;;;;8.75;1.75;;;;;;;8.99;75.58;100320.22;5089663;28;20501;-76
2023/01/12 05:28:07;;;;;;;5.88;1.95;;;;;;;8.99;75.67;100328.06;5079134;28;20047;-74
2023/01/12 05:31:18;;;;;;;6.95;1.23;;;;;;;9.01;75.70;100331.44;5092470;28;20124;-74
2023/01/12 05:34:23;;;;;;;6.90;1.40;;;;;;;9.10;75.47;100321.50;5091793;28;20051;-74
2023/01/12 05:37:30;;;;;;;5.50;1.10;;;;;;;9.15;75.88;100316.88;5091447;28;20097;-73
2023/01/12 05:40:38;;;;;;;8.50;1.77;;;;;;;9.02;75.46;100319.25;5086534;28;20097;-74
2023/01/12 05:43:51;;;;;;;6.60;1.45;;;;;;;9.07;75.34;100297.25;5062081;28;20411;-70
2023/01/12 05:47:00;;;;;;;7.47;1.20;;;;;;;9.06;75.49;100303.38;5045809;28;20137;-70
2023/01/12 05:50:11;;;;;;;7.25;1.40;;;;;;;9.04;75.37;100292.19;5045870;28;20071;-70
2023/01/12 05:53:24;;;;;;;5.65;1.25;;;;;;;9.02;75.57;100280.13;5047456;28;20156;-70
2023/01/12 05:56:35;;;;;;;9.38;1.88;;;;;;;9.05;75.72;100279.97;5046581;28;20090;-70
2023/01/12 05:59:51;;;;;;;9.43;2.65;;;;;;;9.11;76.04;100278.81;5044930;28;20077;-71
2023/01/12 06:03:03;;;;;;;8.10;1.73;;;;;;;9.04;77.49;100271.31;5046235;28;20055;-72
2023/01/12 06:06:12;;;;;;;5.07;1.42;;;;;;;9.07;77.71;100292.03;5126612;22;20064;-72
2023/01/12 06:09:17;;;;;;;8.70;1.00;;;;;;;9.07;77.38;100278.16;5026937;28;20068;-72
2023/01/12 06:15:43;;;;;;;4.50;1.08;;;;;;;8.88;78.84;100265.16;5038388;28;20056;-72
2023/01/12 06:18:47;;;;;;;6.45;1.15;;;;;;;8.86;79.50;100253.97;5046333;28;20184;-72
2023/01/12 06:21:54;;;;;;;;;;;;;;;8.74;81.01;100257.16;5046658;28;20571;-72
2023/01/12 06:25:00;;;;;;;6.50;0.93;;;;;;;8.69;81.51;100240.94;5047365;28;19959;-72
2023/01/12 06:28:06;;;;;;;4.43;0.75;;;;;;;8.79;80.72;100258.63;5046068;28;20145;-72
2023/01/12 06:31:14;;;;;;;8.93;1.17;;;;;;;8.85;82.27;100262.72;5055927;28;20067;-72
2023/01/12 06:34:19;;;;;;;5.57;1.23;;;;;;;8.80;81.80;100265.53;5045677;28;20075;-72
2023/01/12 06:37:25;;;;;;;5.20;1.25;;;;;;;8.80;81.14;100254.25;5047400;28;20521;-72
2023/01/12 06:40:33;;;;;;;6.03;0.95;;;;;;;8.80;80.29;100249.03;5018432;28;20513;-72
2023/01/12 06:43:42;;;;;;;4.10;1.30;;;;;;;8.81;81.22;100238.56;5041848;28;20044;-72
2023/01/12 06:46:59;;;;;;;4.18;0.70;;;;;;;8.67;82.04;100221.91;5037524;28;20395;-72
2023/01/12 06:50:12;;;;;;;4.43;1.50;;;;;;;8.72;82.25;100225.97;5037620;28;20059;-72
2023/01/12 06:53:18;;;;;;;6.90;1.23;;;;;;;8.72;82.53;100225.13;5048378;28;20103;-72
2023/01/12 06:56:44;;;;;;;3.90;0.88;;;;;;;8.73;83.03;100232.88;5039754;28;20414;-71
2023/01/12 07:00:01;;;;;;;6.60;1.00;;;;;;;8.72;84.74;100220.75;5050749;28;20044;-72
2023/01/12 07:03:13;;;;;;;6.90;1.60;;;;;;;8.59;84.96;100228.34;5049168;28;20552;-72
2023/01/12 07:06:24;;;;;;;4.97;1.10;;;;;;;8.50;85.33;100220.13;5049262;28;20115;-72
2023/01/12 07:09:44;;;;;;;3.88;0.70;;;;;;;8.69;84.47;100214.84;5049988;28;20578;-72
2023/01/12 07:13:21;;;;;;;6.55;1.02;;;;;;;8.74;85.11;100218.06;5040064;28;20068;-73
2023/01/12 07:16:33;;;;;;;4.25;1.20;;;;;;;8.59;85.35;100210.09;5047164;28;20179;-71
2023/01/12 07:19:57;;;;;;;7.32;1.33;;;;;;;8.68;85.96;100207.94;5034739;28;20040;-71
2023/01/12 07:23:02;;;;;;;9.52;1.65;;;;;;;8.43;87.61;100214.38;5028847;28;20119;-71
2023/01/12 07:26:12;;;;;;;5.95;1.25;;;;;;;8.50;86.50;100214.91;5028824;28;20045;-72
2023/01/12 07:29:36;;;;;;;6.15;1.15;;;;;;;8.54;86.53;100208.63;5008717;28;20077;-71
2023/01/12 07:32:51;;;;;;;6.35;1.30;;;;;;;8.41;86.67;100215.34;5008886;28;20634;-71
2023/01/12 07:36:05;;;;;;;6.30;1.20;;;;;;;8.61;85.62;100213.47;5020738;28;20048;-72
2023/01/12 07:39:18;;;;;;;4.57;1.08;;;;;;;8.49;86.09;100211.47;5028517;28;20122;-71
2023/01/12 07:42:27;;;;;;;7.22;1.20;;;;;;;8.53;85.45;100205.19;5027059;28;20141;-71
2023/01/12 07:45:51;;;;;;;8.32;2.60;;;;;;;8.57;85.14;100206.72;5030989;28;20458;-71
2023/01/12 07:49:10;;;;;;;11.47;2.83;;;;;;;8.57;85.07;100218.91;5027997;28;20048;-71
2023/01/12 07:52:17;;;;;;;10.25;3.20;;;;;;;8.71;84.08;100218.22;5026921;28;20052;-71
2023/01/12 07:55:22;;;;;;;5.80;1.67;;;;;;;8.67;83.99;100211.47;5028604;28;20047;-71
2023/01/12 07:58:30;;;;;;;7.68;2.13;;;;;;;8.72;84.91;100214.72;5028390;28;20129;-72
2023/01/12 08:01:41;;;;;;;5.55;1.17;;;;;;;8.60;84.75;100195.31;5028428;28;20052;-72
2023/01/12 08:04:54;;;;;;;8.52;1.02;;;;;;;8.74;84.04;100203.28;5027594;28;20071;-71
2023/01/12 08:08:00;;;;;;;4.70;1.20;;;;;;;8.78;84.31;100193.56;5008415;28;20057;-71
2023/01/12 08:11:06;;;;;;;7.13;1.40;;;;;;;8.96;82.70;100192.59;5008786;28;20048;-71
2023/01/12 08:14:27;;;;;;;6.25;1.23;;;;;;;8.87;82.58;100187.00;4996099;28;20427;-72
2023/01/12 08:17:41;;;;;;;10.30;1.58;;;;;;;8.78;82.64;100190.94;5008118;28;20478;-72
2023/01/12 08:20:55;;;;;;;8.75;2.33;;;;;;;8.81;83.08;100206.44;5009092;28;20302;-72
2023/01/12 08:24:08;;;;;;;10.05;2.25;;;;;;;8.85;83.12;100200.13;5009023;28;20049;-72
2023/01/12 08:27:25;;;;;;;9.10;2.10;;;;;;;8.82;83.14;100210.72;5007843;28;20053;-72
2023/01/12 08:30:38;;;;;;;9.48;2.13;;;;;;;8.86;83.13;100196.59;5007968;28;20129;-72
2023/01/12 08:33:42;;;;;;;11.10;4.38;;;;;;;8.89;83.25;100211.25;5007946;28;20056;-72
2023/01/12 08:36:46;;;;;;;7.60;1.70;;;;;;;8.92;82.54;100200.66;5007761;28;20048;-72
2023/01/12 08:39:52;;;;;;;8.63;1.65;;;;;;;9.02;81.99;100201.88;5007372;28;20427;-72
2023/01/12 08:43:13;;;;;;;6.00;1.65;;;;;;;9.11;81.96;100203.19;5007565;28;20041;-72
2023/01/12 08:46:56;;;;;;;24.67;2.72;;;;;;;9.04;82.25;100203.50;5004323;28;20628;-72
2023/01/12 08:50:00;;;;;;;6.47;1.77;;;;;;;9.11;81.85;100208.41;5027105;28;20418;-73
2023/01/12 08:53:09;;;;;;;10.23;2.25;;;;;;;9.13;82.05;100209.19;5027023;28;20545;-73
2023/01/12 08:56:13;;;;;;;11.88;2.50;;;;;;;9.08;82.11;100202.41;5007085;28;20682;-72
2023/01/12 08:59:28;;;;;;;14.50;2.40;;;;;;;9.16;81.49;100216.84;5006482;28;20046;-72
2023/01/12 09:02:46;;;;;;;6.97;1.85;;;;;;;9.20;81.22;100216.59;4994508;28;20549;-72
2023/01/12 09:05:59;;;;;;;4.55;0.98;;;;;;;9.27;80.86;100211.91;5009588;28;20164;-72
2023/01/12 09:09:11;;;;;;;4.38;1.05;;;;;;;9.27;80.87;100201.47;5023203;28;20048;-72
2023/01/12 09:12:25;;;;;;;4.55;1.15;;;;;;;9.26;81.16;100210.22;5026184;28;20048;-72
2023/01/12 09:15:38;;;;;;;4.15;1.15;;;;;;;9.37;81.27;100209.66;5025523;28;20047;-73
2023/01/12 09:18:53;;;;;;;3.97;1.13;;;;;;;9.30;81.66;100207.38;5026575;28;20068;-72
2023/01/12 09:22:09;;;;;;;9.57;4.78;;;;;;;9.30;81.67;100209.97;5027237;28;20284;-72
2023/01/12 09:25:14;;;;;;;6.50;3.28;;;;;;;9.32;81.09;100215.13;5027301;28;20570;-72
2023/01/12 09:28:43;;;;;;;5.80;1.77;;;;;;;9.42;81.00;100205.91;5026580;28;20056;-72
2023/01/12 09:32:02;;;;;;;4.55;0.90;;;;;;;9.39;81.09;100207.81;5026514;28;20074;-73
2023/01/12 09:35:17;;;;;;;3.65;0.90;;;;;;;9.44;80.87;100209.25;5026496;28;20107;-71
2023/01/12 09:38:37;;;;;;;6.47;1.23;;;;;;;9.45;80.39;100221.41;5027361;28;20048;-71
2023/01/12 09:49:25;;;;;;;6.00;1.38;;;;;;;9.53;80.62;100223.59;5034026;28;20048;-72
2023/01/12 09:53:04;;;;;;;6.35;1.63;;;;;;;9.57;80.76;100226.88;5015333;28;20184;-73
2023/01/12 09:56:30;;;;;;;5.30;0.98;;;;;;;9.58;80.77;100233.81;5025590;28;20270;-72
2023/01/12 09:59:47;;;;;;;6.90;1.50;;;;;;;9.61;80.85;100251.91;5024951;28;20410;-72
2023/01/12 10:03:17;;;;;;;7.55;1.77;;;;;;;9.62;81.61;100244.00;5024268;28;20099;-72
2023/01/12 10:06:21;;;;;;;7.88;1.20;;;;;;;9.63;81.53;100239.59;5024992;28;20061;-72
2023/01/12 10:09:27;;;;;;;6.47;1.52;;;;;;;9.62;82.23;100243.16;5024818;28;20072;-72
2023/01/12 10:12:59;;;;;;;3.30;0.50;;;;;;;9.70;82.04;100226.16;5025317;28;20316;-73
2023/01/12 10:16:34;;;;;;;5.43;1.20;;;;;;;9.64;82.67;100221.25;5026313;28;20044;-72
2023/01/12 10:20:04;;;;;;;6.88;1.58;;;;;;;9.57;83.16;100224.25;5026269;28;20131;-72
2023/01/12 10:23:08;;;;;;;6.20;1.48;;;;;;;9.60;82.86;100224.94;5027053;28;20095;-72
2023/01/12 10:26:22;;;;;;;7.40;2.53;;;;;;;9.63;82.06;100227.38;5025995;28;20049;-72
2023/01/12 10:29:32;;;;;;;9.05;2.30;;;;;;;9.65;81.48;100217.72;5027136;28;20076;-72
2023/01/12 10:32:44;;;;;;;9.02;1.50;;;;;;;9.71;80.74;100227.00;5030143;28;20434;-72
2023/01/12 10:36:08;;;;;;;6.22;1.98;;;;;;;9.77;81.13;100216.22;5030682;28;20081;-72
2023/01/12 10:39:41;;;;;;;4.55;1.05;;;;;;;9.80;80.11;100217.84;5029660;28;20044;-72
2023/01/12 10:43:17;;;;;;;2.95;0.88;;;;;;;9.82;80.25;100219.41;5030168;28;20088;-72
2023/01/12 10:46:30;;;;;;;5.93;2.13;;;;;;;9.93;79.96;100222.31;5029763;28;20137;-72
2023/01/12 10:49:38;;;;;;;4.07;1.70;;;;;;;9.96;79.50;100224.75;5039309;28;20092;-72
2023/01/12 10:53:04;;;;;;;5.60;2.10;;;;;;;9.93;79.16;100211.03;5047392;28;20048;-72
2023/01/12 10:56:25;;;;;;;5.13;1.27;;;;;;;9.94;79.59;100197.88;5028723;28;20545;-72
2023/01/12 10:59:40;;;;;;;5.90;0.90;;;;;;;10.03;79.34;100201.75;5017710;28;20047;-72
2023/01/12 11:02:53;;;;;;;3.15;0.70;;;;;;;10.07;78.93;100213.72;5029772;28;20064;-72
2023/01/12 11:06:31;;;;;;;3.22;1.38;;;;;;;10.04;78.66;100207.81;5029574;28;20056;-72
2023/01/12 11:09:51;;;;;;;2.13;0.40;;;;;;;10.02;79.13;100195.69;5028101;28;20099;-72
2023/01/12 11:12:59;;;;;;;4.32;0.80;;;;;;;10.07;78.98;100212.88;5028923;28;20532;-72
2023/01/12 11:16:23;;;;;;;4.47;0.73;;;;;;;10.07;78.86;100197.19;5026205;28;20565;-72
2023/01/12 11:19:41;;;;;;;2.85;0.60;;;;;;;10.11;78.62;100203.94;5010282;28;20120;-72
2023/01/12 11:22:54;;;;;;;3.65;0.60;;;;;;;10.14;78.02;100214.22;5008812;28;20072;-72
2023/01/12 11:26:17;;;;;;;6.18;0.95;;;;;;;10.15;77.87;100210.69;5008803;28;20100;-72
2023/01/12 11:29:53;;;;;;;6.15;1.13;;;;;;;10.14;78.67;100201.97;5009620;28;20077;-72
2023/01/12 11:33:19;;;;;;;8.73;1.10;;;;;;;10.10;78.96;100189.19;5008603;28;20522;-72
2023/01/12 11:36:42;;;;;;;1.75;0.45;;;;;;;10.10;79.15;100181.34;5009448;28;20124;-73
2023/01/12 11:40:03;;;;;;;3.25;0.85;;;;;;;10.17;78.72;100193.97;5008660;28;20134;-72
2023/01/12 11:46:51;;;;;;;3.83;0.60;;;;;;;10.17;78.21;100182.69;5008706;28;20468;-72
2023/01/12 11:50:16;;;;;;;6.20;1.55;;;;;;;10.22;78.51;100170.22;5030656;28;20139;-72
2023/01/12 11:53:35;;;;;;;5.25;1.10;;;;;;;10.29;77.88;100175.97;5009878;28;20072;-72
2023/01/12 11:57:23;;;;;;;2.67;1.10;;;;;;;10.28;78.61;100172.53;5009889;28;20104;-72
2023/01/12 12:00:40;;;;;;;4.38;0.95;;;;;;;10.32;78.20;100171.41;5010256;28;20044;-72
2023/01/12 12:03:59;;;;;;;1.80;0.47;;;;;;;10.28;78.80;100180.34;5009884;28;20446;-72
2023/01/12 12:07:44;;;;;;;3.78;0.57;;;;;;;10.32;78.25;100179.25;5009671;28;20742;-72
2023/01/12 12:11:23;;;;;;;4.18;0.55;;;;;;;10.31;78.58;100174.97;5010236;28;20562;-72
2023/01/12 12:14:58;;;;;;;3.83;0.50;;;;;;;10.32;78.20;100184.47;5009672;28;20112;-72
2023/01/12 12:18:46;;;;;;;2.78;0.50;;;;;;;10.31;78.41;100179.34;5008957;28;20064;-72
2023/01/12 12:22:17;;;;;;;4.00;1.27;;;;;;;10.32;78.98;100166.19;4998681;28;20069;-72
2023/01/12 12:25:45;;;;;;;7.15;3.28;;;;;;;10.34;78.81;100173.91;5009359;28;20585;-72
2023/01/12 12:29:29;;;;;;;4.88;1.90;;;;;;;10.42;79.61;100174.34;5011908;28;20514;-72
2023/01/12 12:33:05;;;;;;;2.80;1.00;;;;;;;10.34;79.71;100174.78;5012438;28;20049;-72
2023/01/12 12:36:19;;;;;;;1.65;0.35;;;;;;;10.31;78.87;100169.72;5012553;28;20671;-72
2023/01/12 12:39:45;;;;;;;4.88;1.60;;;;;;;10.41;79.58;100163.03;5012370;28;20037;-72
2023/01/12 12:46:46;;;;;;;5.30;1.73;;;;;;;10.34;79.26;100161.72;5012631;28;19920;-73
2023/01/12 12:50:25;;;;;;;3.38;0.80;;;;;;;10.31;78.96;100164.50;5014153;28;20569;-72
2023/01/12 12:53:53;;;;;;;1.40;0.45;;;;;;;10.33;79.58;100157.41;5029334;28;20110;-72
2023/01/12 12:57:12;;;;;;;3.38;1.48;;;;;;;10.39;79.07;100162.28;5031990;28;20048;-72
2023/01/12 13:00:41;;;;;;;3.05;0.77;;;;;;;10.31;79.51;100158.44;5031934;28;20157;-72
2023/01/12 13:03:56;;;;;;;3.72;0.80;;;;;;;10.29;79.90;100155.91;5032017;28;20119;-73
2023/01/12 13:07:18;;;;;;;5.30;0.75;;;;;;;10.26;80.45;100156.06;5030900;28;20072;-74
2023/01/12 13:10:28;;;;;;;;;;;;;;;10.24;80.87;100153.53;5032487;28;20140;-71
2023/01/12 13:13:37;;;;;;;1.48;0.60;;;;;;;10.35;80.43;100154.72;5031790;28;19967;-71
2023/01/12 13:16:59;;;;;;;1.73;0.47;;;;;;;10.27;80.63;100155.13;5031697;28;20052;-71
2023/01/12 13:20:36;;;;;;;2.45;0.47;;;;;;;10.26;81.57;100161.31;5031657;28;20056;-71
2023/01/12 13:24:14;;;;;;;2.22;0.40;;;;;;;10.22;81.37;100155.38;5031489;28;20052;-73
2023/01/12 13:27:51;;;;;;;1.48;0.30;;;;;;;10.29;81.50;100145.44;5031514;28;20056;-73
2023/01/12 13:30:57;;;;;;;1.38;0.20;;;;;;;10.17;82.03;100140.88;5031492;28;20040;-74
2023/01/12 13:34:36;;;;;;;3.00;0.40;;;;;;;10.11;83.55;100147.28;5019823;28;20649;-73
2023/01/12 13:37:52;;;;;;;1.25;0.38;;;;;;;10.22;82.34;100133.63;5031968;28;20573;-73
2023/01/12 13:41:13;;;;;;;2.58;0.50;;;;;;;10.18;82.35;100137.38;5020439;28;20091;-73
2023/01/12 13:44:28;;;;;;;2.30;0.45;;;;;;;10.21;82.13;100135.41;5031276;28;20466;-73
2023/01/12 13:47:33;;;;;;;2.20;0.70;;;;;;;10.20;82.58;100143.31;5031445;28;20041;-70
2023/01/12 13:50:48;;;;;;;2.20;0.55;;;;;;;10.26;83.23;100140.41;5031202;28;20431;-78
2023/01/12 13:54:04;;;;;;;1.50;0.35;;;;;;;10.25;82.34;100143.91;5027823;28;20087;-75
2023/01/12 13:57:23;;;;;;;1.40;0.20;;;;;;;10.23;82.18;100144.00;5030882;28;20082;-74
2023/01/12 14:00:33;;;;;;;6.00;1.58;;;;;;;10.30;81.51;100141.91;5031286;28;20088;-73
2023/01/12 14:04:18;;;;;;;6.38;2.60;;;;;;;10.37;81.12;100158.94;5032366;28;20074;-73
2023/01/12 14:07:52;;;;;;;3.67;1.75;;;;;;;10.36;80.58;100157.22;5034791;28;20107;-74
2023/01/12 14:11:18;;;;;;;5.88;3.20;;;;;;;10.37;80.38;100142.38;5034935;28;20115;-72
2023/01/12 14:18:17;;;;;;;3.10;1.57;;;;;;;10.38;80.30;100146.69;5034582;28;20056;-72
2023/01/12 14:21:26;;;;;;;4.03;2.25;;;;;;;10.40;80.03;100148.31;5034755;28;20099;-72
2023/01/12 14:24:30;;;;;;;4.55;2.53;;;;;;;10.41;79.94;100155.22;5023031;28;20410;-73
2023/01/12 14:27:34;;;;;;;2.70;0.82;;;;;;;10.40;79.93;100147.44;5034732;28;20044;-74
2023/01/12 14:30:45;;;;;;;6.28;4.13;;;;;;;10.42;80.02;100151.66;5034754;28;20052;-72
2023/01/12 14:33:55;;;;;;;;;;;;;;;10.43;79.86;100153.34;5035181;28;20037;-77
2023/01/12 14:37:21;;;;;;;8.80;5.68;;;;;;;10.44;79.17;100152.41;5034449;28;20386;-75
2023/01/12 14:40:34;;;;;;;2.38;0.82;;;;;;;10.43;79.40;100140.28;5034584;28;20047;-75
2023/01/12 14:47:08;;;;;;;6.97;4.25;;;;;;;10.48;79.27;100135.63;5034448;28;20053;-76
2023/01/12 14:50:14;;;;;;;7.68;3.22;;;;;;;10.50;78.96;100163.44;5022193;28;20052;-74
2023/01/12 14:53:30;;;;;;;1.73;0.68;;;;;;;10.50;78.80;100146.00;5038872;28;20052;-76
2023/01/12 14:56:40;;;;;;;2.85;0.93;;;;;;;10.53;78.19;100152.81;5014521;28;20140;-74
2023/01/12 14:59:47;;;;;;;5.13;2.30;;;;;;;10.52;78.54;100149.34;5002163;28;20127;-74
2023/01/12 15:02:54;;;;;;;11.13;5.85;;;;;;;10.57;78.52;100143.88;5014889;28;20442;-75
2023/01/12 15:05:58;;;;;;;2.85;0.50;;;;;;;10.56;78.65;100142.16;5014034;28;20088;-74
2023/01/12 15:09:02;;;;;;;2.00;0.57;;;;;;;10.50;78.89;100142.53;5013942;28;20045;-74
2023/01/12 15:12:24;;;;;;;3.53;2.00;;;;;;;10.47;78.89;100138.34;5001998;28;20113;-72
2023/01/12 15:25:39;;;;;;;1.95;0.52;;;;;;;10.60;78.22;100120.16;5014291;28;20044;-74
2023/01/12 15:28:44;;;;;;;2.45;0.70;;;;;;;10.59;77.84;100121.94;5013855;28;20137;-74
2023/01/12 15:31:48;;;;;;;2.45;0.98;;;;;;;10.61;77.76;100122.66;5014026;28;20048;-74
2023/01/12 15:34:52;;;;;;;1.77;0.73;;;;;;;10.61;77.19;100114.00;5014014;28;20515;-74
2023/01/12 15:50:58;;;;;;;1.85;0.60;;;;;;;10.64;76.84;100126.88;5052133;28;20504;-80
2023/01/12 15:54:08;;;;;;;2.72;1.10;;;;;;;10.65;76.88;100113.72;5051240;28;20044;-79
2023/01/12 15:57:13;;;;;;;2.15;1.00;;;;;;;10.63;76.94;100125.22;5053826;28;20403;-79
2023/01/12 16:00:22;;;;;;;1.60;0.43;;;;;;;10.64;76.80;100117.25;5054834;28;20048;-79
2023/01/12 16:03:28;;;;;;;1.48;0.40;;;;;;;10.62;77.10;100115.66;5053773;28;20094;-79
2023/01/12 16:06:36;;;;;;;2.55;0.40;;;;;;;10.63;76.70;100104.28;5054228;28;20404;-79
2023/01/12 16:09:40;;;;;;;4.15;2.20;;;;;;;10.70;76.33;100121.28;5048563;28;20114;-78
2023/01/12 16:12:48;;;;;;;3.88;1.02;;;;;;;10.54;76.86;100113.50;4696358;28;10000430;-79
2023/01/12 16:15:54;;;;;;;1.42;0.38;;;;;;;10.62;76.23;100110.44;5047488;28;20047;-78
2023/01/12 16:18:59;;;;;;;4.53;0.82;;;;;;;10.62;76.70;100110.44;5046121;28;20490;-79
2023/01/12 16:22:02;;;;;;;5.47;3.10;;;;;;;10.58;76.84;100114.16;5045530;28;20147;-83
2023/01/12 16:25:20;;;;;;;5.95;2.90;;;;;;;10.60;76.88;100112.31;5045923;28;20080;-83
2023/01/12 16:28:25;;;;;;;6.35;3.35;;;;;;;10.64;76.73;100103.34;5045289;28;20067;-84